Silver Houston — 3FWW5 — position and weather

sailwx.info

Track history (hours):
 
Tides and Currents Weather Stations Pressure Air Temp Water Temp Dewpoint Dewpoint Depression Visibility Wind Speed Wind Dir Waves Ship Positions

Silver Houston

Last reported at 2018-Feb-16 07:34 UTC. Time now 2018-Feb-20 10:02 UTC.
Position N 28°34' W 094°26'.

Length 183 m; draft 11.3 m.

Type: Tanker. MMSI: 373105000.

Date/timePositionNaut miles runAvg speedWind from/ knotsBaromVisibWave heightAir tempDewpointWater temp
2018-Feb-16 07:34N 28°34' W 094°26'211.5
2018-Feb-16 07:25N 28°36' W 094°26'611.8
2018-Feb-16 06:52N 28°42' W 094°25'511.6
2018-Feb-16 06:25N 28°48' W 094°25'511.6
2018-Feb-16 05:58N 28°53' W 094°25'711.8
2018-Feb-16 05:23N 28°60' W 094°25'811.5
2018-Feb-16 04:43N 29°07' W 094°26'311.7
2018-Feb-16 04:30N 29°09' W 094°28'611.6
2018-Feb-16 04:00N 29°13' W 094°33'610.6
2018-Feb-16 03:25N 29°18' W 094°37'410.1
2018-Feb-16 02:59N 29°20' W 094°41'510.1
2018-Feb-16 02:29N 29°21' W 094°47'5 9.7
2018-Feb-16 02:00N 29°25' W 094°50'5 8.9
2018-Feb-16 01:29N 29°29' W 094°52'5 9.6
2018-Feb-16 01:00N 29°33' W 094°55'510.0
2018-Feb-16 00:30N 29°37' W 094°58'5 9.2
2018-Feb-15 23:59N 29°42' W 094°60'5 7.0
2018-Feb-15 23:15N 29°45' W 095°04'3 5.5
2018-Feb-15 22:38N 29°44' W 095°08'5 0.1
2018-Feb-13 21:37N 29°43' W 095°14'0 0.6
2018-Feb-13 21:22N 29°44' W 095°13'0 0.6
2018-Feb-13 21:00N 29°43' W 095°14'0 0.0
2018-Feb-13 09:57N 29°43' W 095°14'9 4.0
2018-Feb-13 07:50N 29°45' W 095°04'4 8.0
2018-Feb-13 07:21N 29°42' W 095°01'3 9.2
2018-Feb-13 07:00N 29°40' W 094°59'510.7
2018-Feb-13 06:30N 29°35' W 094°56'612.0
2018-Feb-13 05:58N 29°30' W 094°52'1611.1
2018-Feb-13 04:30N 29°19' W 094°38'3 0.2
2018-Feb-12 16:29N 29°19' W 094°35'0 0.0
2018-Feb-12 15:59N 29°19' W 094°35'0 0.0
2018-Feb-12 15:17N 29°19' W 094°35'0 0.1
2018-Feb-12 14:56N 29°19' W 094°35'0 0.0
2018-Feb-12 06:02N 29°19' W 094°35'0 0.2
2018-Feb-12 05:59N 29°19' W 094°35'0 0.0
2018-Feb-12 04:32N 29°19' W 094°35'0 0.2
2018-Feb-12 04:23N 29°19' W 094°35'0 0.0
2018-Feb-12 03:50N 29°19' W 094°35'0 0.0
2018-Feb-12 03:02N 29°19' W 094°35'0 0.0
2018-Feb-12 02:50N 29°19' W 094°35'0 0.0
2018-Feb-12 02:29N 29°19' W 094°35'0 0.1
2018-Feb-12 01:59N 29°19' W 094°35'0 0.0
2018-Feb-12 01:29N 29°19' W 094°35'0 0.0
2018-Feb-12 00:26N 29°19' W 094°35'0 0.0
2018-Feb-11 23:59N 29°19' W 094°35'0 0.0
2018-Feb-11 23:26N 29°19' W 094°35'0 0.0
2018-Feb-11 22:53N 29°19' W 094°35'0 0.0
2018-Feb-11 22:29N 29°19' W 094°35'0 0.0
2018-Feb-11 21:59N 29°19' W 094°35'0 0.0
2018-Feb-11 18:02N 29°19' W 094°35'0 0.1
2018-Feb-11 17:56N 29°19' W 094°35'0 0.0
2018-Feb-11 17:26N 29°19' W 094°35'0 0.0
2018-Feb-11 16:56N 29°19' W 094°35'0 0.0
2018-Feb-11 15:47N 29°19' W 094°35'0 0.0
2018-Feb-11 15:29N 29°19' W 094°35'0 0.0
2018-Feb-11 14:59N 29°19' W 094°35'0 0.0
2018-Feb-11 14:29N 29°19' W 094°35'0 0.0
2018-Feb-11 13:14N 29°19' W 094°35'0 0.0
2018-Feb-11 12:59N 29°19' W 094°35'0 0.0
2018-Feb-11 12:26N 29°19' W 094°35'0 0.0
2018-Feb-11 11:56N 29°19' W 094°35'0 0.0
2018-Feb-11 11:29N 29°19' W 094°35'0 0.0
2018-Feb-11 10:59N 29°19' W 094°35'0 0.0
2018-Feb-11 10:29N 29°19' W 094°35'0 0.0
2018-Feb-10 23:17N 29°19' W 094°35'0 0.1
2018-Feb-10 22:56N 29°19' W 094°35'0 0.1
2018-Feb-10 20:53N 29°19' W 094°35'0 0.0
2018-Feb-10 14:41N 29°19' W 094°35'0 0.1
2018-Feb-10 14:29N 29°19' W 094°35'0 0.0
2018-Feb-10 13:47N 29°19' W 094°35'0 0.0
2018-Feb-10 13:26N 29°19' W 094°35'0 0.0
2018-Feb-10 12:59N 29°19' W 094°35'0 0.0
2018-Feb-10 12:29N 29°19' W 094°35'0 0.0
2018-Feb-10 11:05N 29°19' W 094°35'0 0.1
2018-Feb-10 10:59N 29°19' W 094°35'0 0.1
2018-Feb-10 10:02N 29°19' W 094°35'0 0.1
2018-Feb-10 09:56N 29°19' W 094°35'0 0.0
2018-Feb-10 09:29N 29°19' W 094°35'0 0.0
2018-Feb-10 08:59N 29°19' W 094°35'0 0.0
2018-Feb-10 08:26N 29°19' W 094°35'0 0.0
2018-Feb-10 07:56N 29°19' W 094°35'17 0.6
2018-Feb-09 02:30N 29°05' W 094°25'  
Track history (hours):
 
Tides and Currents Weather Stations Pressure Air Temp Water Temp Dewpoint Dewpoint Depression Visibility Wind Speed Wind Dir Waves Ship Positions

Silver Houston

Last reported at 2018-Feb-16 07:34 UTC. Time now 2018-Feb-20 10:02 UTC.
Position N 28°34' W 094°26'.

Length 183 m; draft 11.3 m.

Type: Tanker. MMSI: 373105000.

Date/timePositionNaut miles runAvg speedWind from/ knotsBaromVisibWave heightAir tempDewpointWater temp
2018-Feb-16 07:34N 28°34' W 094°26'211.5
2018-Feb-16 07:25N 28°36' W 094°26'611.8
2018-Feb-16 06:52N 28°42' W 094°25'511.6
2018-Feb-16 06:25N 28°48' W 094°25'511.6
2018-Feb-16 05:58N 28°53' W 094°25'711.8
2018-Feb-16 05:23N 28°60' W 094°25'811.5
2018-Feb-16 04:43N 29°07' W 094°26'311.7
2018-Feb-16 04:30N 29°09' W 094°28'611.6
2018-Feb-16 04:00N 29°13' W 094°33'610.6
2018-Feb-16 03:25N 29°18' W 094°37'410.1
2018-Feb-16 02:59N 29°20' W 094°41'510.1
2018-Feb-16 02:29N 29°21' W 094°47'5 9.7
2018-Feb-16 02:00N 29°25' W 094°50'5 8.9
2018-Feb-16 01:29N 29°29' W 094°52'5 9.6
2018-Feb-16 01:00N 29°33' W 094°55'510.0
2018-Feb-16 00:30N 29°37' W 094°58'5 9.2
2018-Feb-15 23:59N 29°42' W 094°60'5 7.0
2018-Feb-15 23:15N 29°45' W 095°04'3 5.5
2018-Feb-15 22:38N 29°44' W 095°08'5 0.1
2018-Feb-13 21:37N 29°43' W 095°14'0 0.6
2018-Feb-13 21:22N 29°44' W 095°13'0 0.6
2018-Feb-13 21:00N 29°43' W 095°14'0 0.0
2018-Feb-13 09:57N 29°43' W 095°14'9 4.0
2018-Feb-13 07:50N 29°45' W 095°04'4 8.0
2018-Feb-13 07:21N 29°42' W 095°01'3 9.2
2018-Feb-13 07:00N 29°40' W 094°59'510.7
2018-Feb-13 06:30N 29°35' W 094°56'612.0
2018-Feb-13 05:58N 29°30' W 094°52'1611.1
2018-Feb-13 04:30N 29°19' W 094°38'3 0.2
2018-Feb-12 16:29N 29°19' W 094°35'0 0.0
2018-Feb-12 15:59N 29°19' W 094°35'0 0.0
2018-Feb-12 15:17N 29°19' W 094°35'0 0.1
2018-Feb-12 14:56N 29°19' W 094°35'0 0.0
2018-Feb-12 06:02N 29°19' W 094°35'0 0.2
2018-Feb-12 05:59N 29°19' W 094°35'0 0.0
2018-Feb-12 04:32N 29°19' W 094°35'0 0.2
2018-Feb-12 04:23N 29°19' W 094°35'0 0.0
2018-Feb-12 03:50N 29°19' W 094°35'0 0.0
2018-Feb-12 03:02N 29°19' W 094°35'0 0.0
2018-Feb-12 02:50N 29°19' W 094°35'0 0.0
2018-Feb-12 02:29N 29°19' W 094°35'0 0.1
2018-Feb-12 01:59N 29°19' W 094°35'0 0.0
2018-Feb-12 01:29N 29°19' W 094°35'0 0.0
2018-Feb-12 00:26N 29°19' W 094°35'0 0.0
2018-Feb-11 23:59N 29°19' W 094°35'0 0.0
2018-Feb-11 23:26N 29°19' W 094°35'0 0.0
2018-Feb-11 22:53N 29°19' W 094°35'0 0.0
2018-Feb-11 22:29N 29°19' W 094°35'0 0.0
2018-Feb-11 21:59N 29°19' W 094°35'0 0.0
2018-Feb-11 18:02N 29°19' W 094°35'0 0.1
2018-Feb-11 17:56N 29°19' W 094°35'0 0.0
2018-Feb-11 17:26N 29°19' W 094°35'0 0.0
2018-Feb-11 16:56N 29°19' W 094°35'0 0.0
2018-Feb-11 15:47N 29°19' W 094°35'0 0.0
2018-Feb-11 15:29N 29°19' W 094°35'0 0.0
2018-Feb-11 14:59N 29°19' W 094°35'0 0.0
2018-Feb-11 14:29N 29°19' W 094°35'0 0.0
2018-Feb-11 13:14N 29°19' W 094°35'0 0.0
2018-Feb-11 12:59N 29°19' W 094°35'0 0.0
2018-Feb-11 12:26N 29°19' W 094°35'0 0.0
2018-Feb-11 11:56N 29°19' W 094°35'0 0.0
2018-Feb-11 11:29N 29°19' W 094°35'0 0.0
2018-Feb-11 10:59N 29°19' W 094°35'0 0.0
2018-Feb-11 10:29N 29°19' W 094°35'0 0.0
2018-Feb-10 23:17N 29°19' W 094°35'0 0.1
2018-Feb-10 22:56N 29°19' W 094°35'0 0.1
2018-Feb-10 20:53N 29°19' W 094°35'0 0.0
2018-Feb-10 14:41N 29°19' W 094°35'0 0.1
2018-Feb-10 14:29N 29°19' W 094°35'0 0.0
2018-Feb-10 13:47N 29°19' W 094°35'0 0.0
2018-Feb-10 13:26N 29°19' W 094°35'0 0.0
2018-Feb-10 12:59N 29°19' W 094°35'0 0.0
2018-Feb-10 12:29N 29°19' W 094°35'0 0.0
2018-Feb-10 11:05N 29°19' W 094°35'0 0.1
2018-Feb-10 10:59N 29°19' W 094°35'0 0.1
2018-Feb-10 10:02N 29°19' W 094°35'0 0.1
2018-Feb-10 09:56N 29°19' W 094°35'0 0.0
2018-Feb-10 09:29N 29°19' W 094°35'0 0.0
2018-Feb-10 08:59N 29°19' W 094°35'0 0.0
2018-Feb-10 08:26N 29°19' W 094°35'0 0.0
2018-Feb-10 07:56N 29°19' W 094°35'17 0.6
2018-Feb-09 02:30N 29°05' W 094°25'  

Dump ship's entire track history